ASN logo
Last updated: 10 July 2020
Statuts:Préliminaire
Date:vendredi 31 août 2012
Heure:ca 15:20
Type/Sous-type:Silhouette image of generic AT43 model; specific model in this crash may look slightly different
ATR 42-500
Compagnie:Pakistan International Airlines - PIA
Immatriculation: AP-BHJ
Numéro de série: 657
Année de Fabrication: 2006-12-23 (5 years 8 months)
Moteurs: 2 Pratt & Whitney Canada PW127E
Equipage:victimes: 0 / à bord: 4
Passagers:victimes: 0 / à bord: 42
Total:victimes: 0 / à bord: 46
Dégats de l'appareil: Substantiels
Conséquences: Written off (damaged beyond repair)
Lieu de l'accident:Lahore Airport (LHE) (   Pakistan)
Phase de vol: A l'atterrissage (LDG)
Nature:Transport de Passagers Nat.
Aéroport de départ:Islamabad-Benazir Bhutto International Airport (ISB/OPRN), Pakistan
Aéroport de destination:Lahore Airport (LHE/OPLA), Pakistan
Numéro de vol:PK653
Détails:
A Pakistan International Airlines ATR 42-500 passenger plane was damaged in a landing accident at Lahore Airport (LHE), Pakistan. No injuries were reported.
Flight PK653 departed Islamabad-Benazir Bhutto International Airport (ISB) at 14:04 on a domestic flight to Lahore. Upon landing at Lahore's runway 36R/18L the airplane ran off the runway. The right hand main gear had collapsed and the airplane came to rest, tilting to the right.
One of the occupants reported that the plane bounced on landing and left the runway.

Sources:
» The Express Tribune

METAR Weather report:
10:00 UTC / 15:00 local time:
OPLA 311000Z 33008KT 4000 -RA SCT040 BKN100 32/24 Q1002 TEMPO 31030KT 2000 TSRA FEW030CB A29.59
Winds 330 degrees at 8 knots, Visibility: 4000 m; light rain; Scattered clouds at 4000 feet AGL, broken clouds at 10000 feet AGL; Temperature: 32°C, Dew point 24°C, Pressure: 1002 mb; Temporary weather conditions: winds from 310° at 30 knots during a thunderstorm with visibility 2000 m and few Cumulonimbus clouds at 3000 feet AGL

10:15 UTC / 15:15 local time:
OPLA 311015Z 16009KT 3000 RA BKN040 OVC100 29/24 Q1003
Winds 160 degrees at 9 knots, Visibility: 3000 m; light rain; broken clouds at 4000 feet AGL; overcast cloud deck at 10000 feet AGL, Temperature: 29°C, Dew point 24°C, Pressure: 1003 mb


Photos

photo of ATR-42-500-AP-BHJ
accident date: 31-08-2012
type: ATR 42-500
registration: AP-BHJ
 

Video, social media

Plan
Ce plan montre l'aéroport de départ ainsi que la supposée destination du vol. La ligne fixe reliant les deux aéroports n'est pas le plan de vol exact.
La distance entre Islamabad-Benazir Bhutto International Airport et Lahore Airport est de 261 km (163 miles).

Les informations ci-dessus ne représentent pas l'opinion de la 'Flight Safety Foundation' ou de 'Aviation Safety Network' sur les causes de l'accident. Ces informations prélimimaires sont basées sur les faits tel qu'ils sont connus à ce jour.
languages: languages

Share